Old Greenwich, CT (06870)

5:23 PM EDT on August 30, 2016 (GMT -0400)
Dolphin Cove | | Change Station
Active Advisory: Air Quality Alert

Elev 40 ft 41.03 °N, 73.55 °W | Updated 9 seconds ago

Scattered Clouds
Scattered Clouds
80.4 °F
Feels Like 83 °F
N
2.9
Wind Variable Wind from WSW
Gusts 4.0 mph

Today
High -- | Low -- °F
--% Chance of Precip.
Yesterday
High -- | Low -- °F
Precip. -- in
Pressure 30.05 in
Visibility 10.0 miles
Clouds Scattered Clouds 5500 ft
Heat Index 83 °F
Dew Point 67 °F
Humidity 64%
Rainfall 0.00 in
Snow Depth Not available.
6:19 AM 7:29 PM
Waning Crescent, 2% visible
METAR KHPN 302056Z 15004KT 10SM SCT055 27/16 A3006 RMK AO2 SLP174 T02670161 56022
Pressure 30.05 in
Visibility 10.0 miles
Clouds Scattered Clouds 5500 ft
Heat Index 83 °F
Dew Point 67 °F
Humidity 64%
Rainfall 0.00 in
Snow Depth Not available.
6:19 AM 7:29 PM
Waning Crescent, 2% visible
METAR KHPN 302056Z 15004KT 10SM SCT055 27/16 A3006 RMK AO2 SLP174 T02670161 56022

10-Day Weather Forecast

Almanac

Astronomy

Aug. 30, 2016 Rise Set
Actual Time
Civil Twilight
Nautical Twilight
Astronomical Twilight
Moon
Length of Visible Light
Length of Day
Tomorrow will be .
, % of the Moon is Illuminated

Today's Extremes

State Highs State Lows

Community

WunderPhotos

Upload Photos

1,935,899 photos uploaded!

WunderBlog® & News

Nearby

Air Quality

  Air Quality AQ Index Pollutant
Not available.

Snow Depth

Station Depth Elevation

Earthquake Activity

City Distance Mag. Time & Date
Minimum magnitude displayed is 2.5.

Coastal Water Temperatures

Place Temperature

Stations

Nearby Weather Stations

Station Location Temp. Windchill Dew Point Humidity Wind Precip. Elev Updated Type
                   

Watches & Warnings

Air Quality Alert
Issued: 3:50 PM EDT Aug. 30, 2016 – National Weather Service

... Air quality alert is in effect from 11 am Wednesday until 11 PM
Wednesday...

The Connecticut department of energy and
environmental protection has issued an air quality action day for
the following counties...

Fairfield... Middlesex and New Haven.

An air quality action day means that ozone within the region may
approach or exceed unhealthy standards. For additional information...
please visit the Connecticut department of environmental protection
web site at http://www.CT.Gov/deep/aqi




Maloit


350 PM EDT Tue Aug 30 2016

... Air quality alert is in effect from 11 am Wednesday until 11 PM
Wednesday...

The Connecticut department of energy and
environmental protection has issued an air quality action day for
the following counties...

Fairfield... Middlesex and New Haven.

An air quality action day means that ozone within the region may
approach or exceed unhealthy standards. For additional information...
please visit the Connecticut department of environmental protection
web site at http://www.CT.Gov/deep/aqi




Maloit